sensor_id;sensor_type;location;lat;lon;timestamp;P1;durP1;ratioP1;P2;durP2;ratioP2
38653;SDS011;24413;52.450;20.706;2024-03-08T00:01:39;92.18;;;44.50;;
38653;SDS011;24413;52.450;20.706;2024-03-08T00:04:04;91.65;;;47.30;;
38653;SDS011;24413;52.450;20.706;2024-03-08T00:06:31;124.30;;;60.42;;
38653;SDS011;24413;52.450;20.706;2024-03-08T00:08:56;150.63;;;74.50;;
38653;SDS011;24413;52.450;20.706;2024-03-08T00:11:21;140.40;;;61.40;;
38653;SDS011;24413;52.450;20.706;2024-03-08T00:13:46;120.73;;;55.33;;
38653;SDS011;24413;52.450;20.706;2024-03-08T00:16:12;103.43;;;50.80;;
38653;SDS011;24413;52.450;20.706;2024-03-08T00:18:37;111.85;;;57.97;;
38653;SDS011;24413;52.450;20.706;2024-03-08T00:21:02;131.23;;;59.73;;
38653;SDS011;24413;52.450;20.706;2024-03-08T00:23:27;170.40;;;67.90;;
38653;SDS011;24413;52.450;20.706;2024-03-08T00:25:53;164.63;;;71.47;;
38653;SDS011;24413;52.450;20.706;2024-03-08T00:28:19;194.40;;;83.80;;
38653;SDS011;24413;52.450;20.706;2024-03-08T00:30:45;182.90;;;82.28;;
38653;SDS011;24413;52.450;20.706;2024-03-08T00:33:11;165.30;;;78.35;;
38653;SDS011;24413;52.450;20.706;2024-03-08T00:35:36;135.50;;;65.28;;
38653;SDS011;24413;52.450;20.706;2024-03-08T00:38:02;152.50;;;66.43;;
38653;SDS011;24413;52.450;20.706;2024-03-08T00:40:27;138.38;;;65.80;;
38653;SDS011;24413;52.450;20.706;2024-03-08T00:42:53;144.35;;;63.25;;
38653;SDS011;24413;52.450;20.706;2024-03-08T00:45:19;150.90;;;66.40;;
38653;SDS011;24413;52.450;20.706;2024-03-08T00:47:44;157.30;;;73.47;;
38653;SDS011;24413;52.450;20.706;2024-03-08T00:50:09;162.25;;;75.13;;
38653;SDS011;24413;52.450;20.706;2024-03-08T00:52:35;131.82;;;65.40;;
38653;SDS011;24413;52.450;20.706;2024-03-08T00:55:00;132.73;;;60.67;;
38653;SDS011;24413;52.450;20.706;2024-03-08T00:57:25;125.05;;;63.65;;
38653;SDS011;24413;52.450;20.706;2024-03-08T00:59:50;140.25;;;66.47;;
38653;SDS011;24413;52.450;20.706;2024-03-08T01:02:15;164.43;;;73.57;;
38653;SDS011;24413;52.450;20.706;2024-03-08T01:04:43;178.07;;;79.57;;
38653;SDS011;24413;52.450;20.706;2024-03-08T01:07:09;140.90;;;65.68;;
38653;SDS011;24413;52.450;20.706;2024-03-08T01:09:34;162.37;;;73.50;;
38653;SDS011;24413;52.450;20.706;2024-03-08T01:11:59;143.75;;;68.35;;
38653;SDS011;24413;52.450;20.706;2024-03-08T01:14:26;155.00;;;73.13;;
38653;SDS011;24413;52.450;20.706;2024-03-08T01:16:51;137.10;;;67.50;;
38653;SDS011;24413;52.450;20.706;2024-03-08T01:19:16;136.48;;;68.10;;
38653;SDS011;24413;52.450;20.706;2024-03-08T01:21:42;155.20;;;70.13;;
38653;SDS011;24413;52.450;20.706;2024-03-08T01:24:07;144.30;;;68.73;;
38653;SDS011;24413;52.450;20.706;2024-03-08T01:26:33;139.10;;;66.72;;
38653;SDS011;24413;52.450;20.706;2024-03-08T01:29:01;124.85;;;60.00;;
38653;SDS011;24413;52.450;20.706;2024-03-08T01:31:30;130.38;;;59.22;;
38653;SDS011;24413;52.450;20.706;2024-03-08T01:33:58;113.72;;;56.13;;
38653;SDS011;24413;52.450;20.706;2024-03-08T01:36:24;127.72;;;60.03;;
38653;SDS011;24413;52.450;20.706;2024-03-08T01:38:49;124.13;;;57.65;;
38653;SDS011;24413;52.450;20.706;2024-03-08T01:41:15;124.90;;;60.38;;
38653;SDS011;24413;52.450;20.706;2024-03-08T01:43:42;117.97;;;57.30;;
38653;SDS011;24413;52.450;20.706;2024-03-08T01:46:07;133.27;;;60.40;;
38653;SDS011;24413;52.450;20.706;2024-03-08T01:48:34;125.30;;;61.83;;
38653;SDS011;24413;52.450;20.706;2024-03-08T01:50:59;130.38;;;59.33;;
38653;SDS011;24413;52.450;20.706;2024-03-08T01:53:25;134.77;;;64.57;;
38653;SDS011;24413;52.450;20.706;2024-03-08T01:55:51;139.98;;;63.13;;
38653;SDS011;24413;52.450;20.706;2024-03-08T01:58:18;133.70;;;62.20;;
38653;SDS011;24413;52.450;20.706;2024-03-08T02:03:20;116.47;;;56.85;;
38653;SDS011;24413;52.450;20.706;2024-03-08T02:05:46;120.15;;;55.67;;
38653;SDS011;24413;52.450;20.706;2024-03-08T02:08:11;110.60;;;52.53;;
38653;SDS011;24413;52.450;20.706;2024-03-08T20:02:26;70.63;;;32.03;;
38653;SDS011;24413;52.450;20.706;2024-03-08T20:04:53;60.58;;;32.15;;
38653;SDS011;24413;52.450;20.706;2024-03-08T20:07:19;80.00;;;36.42;;
38653;SDS011;24413;52.450;20.706;2024-03-08T20:09:44;78.28;;;38.88;;
38653;SDS011;24413;52.450;20.706;2024-03-08T20:12:10;81.65;;;39.22;;
38653;SDS011;24413;52.450;20.706;2024-03-08T20:14:37;78.93;;;39.33;;
38653;SDS011;24413;52.450;20.706;2024-03-08T20:17:02;84.95;;;37.55;;
38653;SDS011;24413;52.450;20.706;2024-03-08T20:19:29;91.50;;;35.40;;
38653;SDS011;24413;52.450;20.706;2024-03-08T20:21:55;91.03;;;40.05;;
38653;SDS011;24413;52.450;20.706;2024-03-08T20:24:21;86.75;;;40.05;;
38653;SDS011;24413;52.450;20.706;2024-03-08T20:27:05;89.45;;;42.15;;
38653;SDS011;24413;52.450;20.706;2024-03-08T20:29:31;105.60;;;50.35;;
38653;SDS011;24413;52.450;20.706;2024-03-08T20:31:56;108.57;;;50.38;;
38653;SDS011;24413;52.450;20.706;2024-03-08T20:34:21;93.70;;;48.83;;
38653;SDS011;24413;52.450;20.706;2024-03-08T20:36:48;135.63;;;57.38;;
38653;SDS011;24413;52.450;20.706;2024-03-08T20:39:13;144.82;;;62.13;;
38653;SDS011;24413;52.450;20.706;2024-03-08T20:41:40;151.82;;;67.85;;
38653;SDS011;24413;52.450;20.706;2024-03-08T20:44:05;150.68;;;68.28;;
38653;SDS011;24413;52.450;20.706;2024-03-08T20:46:32;154.45;;;69.22;;
38653;SDS011;24413;52.450;20.706;2024-03-08T20:48:59;124.82;;;55.55;;
38653;SDS011;24413;52.450;20.706;2024-03-08T20:51:25;115.40;;;55.17;;
38653;SDS011;24413;52.450;20.706;2024-03-08T20:53:51;126.30;;;57.38;;
38653;SDS011;24413;52.450;20.706;2024-03-08T20:56:19;131.73;;;58.63;;
38653;SDS011;24413;52.450;20.706;2024-03-08T20:58:45;126.15;;;58.22;;
38653;SDS011;24413;52.450;20.706;2024-03-08T21:01:10;125.93;;;56.25;;
38653;SDS011;24413;52.450;20.706;2024-03-08T21:03:36;124.28;;;59.30;;
38653;SDS011;24413;52.450;20.706;2024-03-08T21:06:02;146.55;;;67.97;;
38653;SDS011;24413;52.450;20.706;2024-03-08T21:08:30;177.00;;;74.63;;
38653;SDS011;24413;52.450;20.706;2024-03-08T21:10:56;170.63;;;76.80;;
38653;SDS011;24413;52.450;20.706;2024-03-08T21:13:22;171.35;;;79.93;;
38653;SDS011;24413;52.450;20.706;2024-03-08T21:15:51;186.73;;;85.22;;
38653;SDS011;24413;52.450;20.706;2024-03-08T21:18:19;201.13;;;85.28;;
38653;SDS011;24413;52.450;20.706;2024-03-08T21:20:49;191.68;;;87.43;;
38653;SDS011;24413;52.450;20.706;2024-03-08T21:23:15;206.13;;;87.72;;
38653;SDS011;24413;52.450;20.706;2024-03-08T21:25:41;212.30;;;92.55;;
38653;SDS011;24413;52.450;20.706;2024-03-08T21:28:08;214.60;;;97.88;;
38653;SDS011;24413;52.450;20.706;2024-03-08T21:30:33;249.02;;;103.13;;
38653;SDS011;24413;52.450;20.706;2024-03-08T21:32:59;249.30;;;109.60;;
38653;SDS011;24413;52.450;20.706;2024-03-08T21:35:27;220.57;;;96.75;;
38653;SDS011;24413;52.450;20.706;2024-03-08T21:37:55;201.70;;;90.75;;
38653;SDS011;24413;52.450;20.706;2024-03-08T21:40:20;194.60;;;90.03;;
38653;SDS011;24413;52.450;20.706;2024-03-08T21:42:49;215.88;;;94.85;;
38653;SDS011;24413;52.450;20.706;2024-03-08T21:45:15;279.20;;;123.45;;
38653;SDS011;24413;52.450;20.706;2024-03-08T21:47:44;316.05;;;143.00;;
38653;SDS011;24413;52.450;20.706;2024-03-08T21:50:10;272.05;;;124.75;;
38653;SDS011;24413;52.450;20.706;2024-03-08T21:52:45;270.67;;;123.90;;
38653;SDS011;24413;52.450;20.706;2024-03-08T21:55:12;260.10;;;124.40;;
38653;SDS011;24413;52.450;20.706;2024-03-08T21:57:39;254.13;;;119.43;;
38653;SDS011;24413;52.450;20.706;2024-03-08T22:00:08;247.07;;;113.63;;
38653;SDS011;24413;52.450;20.706;2024-03-08T22:02:40;228.30;;;105.32;;
38653;SDS011;24413;52.450;20.706;2024-03-08T22:05:12;217.77;;;100.03;;
38653;SDS011;24413;52.450;20.706;2024-03-08T22:07:48;208.63;;;97.38;;
38653;SDS011;24413;52.450;20.706;2024-03-08T22:10:14;200.32;;;89.65;;
38653;SDS011;24413;52.450;20.706;2024-03-08T22:12:48;197.32;;;92.70;;
38653;SDS011;24413;52.450;20.706;2024-03-08T22:15:13;231.05;;;106.93;;
38653;SDS011;24413;52.450;20.706;2024-03-08T22:17:41;241.35;;;103.68;;
38653;SDS011;24413;52.450;20.706;2024-03-08T22:20:07;227.52;;;100.25;;
38653;SDS011;24413;52.450;20.706;2024-03-08T22:22:40;210.48;;;99.78;;
38653;SDS011;24413;52.450;20.706;2024-03-08T22:25:08;225.23;;;101.85;;
38653;SDS011;24413;52.450;20.706;2024-03-08T22:27:34;228.23;;;100.70;;
38653;SDS011;24413;52.450;20.706;2024-03-08T22:30:00;220.60;;;100.07;;
38653;SDS011;24413;52.450;20.706;2024-03-08T22:32:25;204.02;;;94.03;;
38653;SDS011;24413;52.450;20.706;2024-03-08T22:34:52;197.35;;;90.68;;
38653;SDS011;24413;52.450;20.706;2024-03-08T22:37:17;186.10;;;88.90;;
38653;SDS011;24413;52.450;20.706;2024-03-08T22:39:45;200.13;;;88.95;;
38653;SDS011;24413;52.450;20.706;2024-03-08T22:42:13;187.13;;;88.32;;
38653;SDS011;24413;52.450;20.706;2024-03-08T22:44:39;205.98;;;93.20;;
38653;SDS011;24413;52.450;20.706;2024-03-08T22:47:04;187.52;;;90.05;;
38653;SDS011;24413;52.450;20.706;2024-03-08T22:49:32;217.35;;;99.75;;
38653;SDS011;24413;52.450;20.706;2024-03-08T22:51:58;213.15;;;98.78;;
38653;SDS011;24413;52.450;20.706;2024-03-08T22:54:24;213.48;;;97.28;;
38653;SDS011;24413;52.450;20.706;2024-03-08T22:56:50;228.65;;;103.68;;
38653;SDS011;24413;52.450;20.706;2024-03-08T22:59:15;244.50;;;108.68;;
38653;SDS011;24413;52.450;20.706;2024-03-08T23:01:42;218.95;;;102.60;;
38653;SDS011;24413;52.450;20.706;2024-03-08T23:04:10;240.77;;;112.18;;
38653;SDS011;24413;52.450;20.706;2024-03-08T23:06:37;282.58;;;124.70;;
38653;SDS011;24413;52.450;20.706;2024-03-08T23:09:02;281.85;;;128.40;;
38653;SDS011;24413;52.450;20.706;2024-03-08T23:11:28;280.63;;;131.38;;
38653;SDS011;24413;52.450;20.706;2024-03-08T23:13:54;278.98;;;126.43;;
38653;SDS011;24413;52.450;20.706;2024-03-08T23:16:21;294.55;;;131.68;;
38653;SDS011;24413;52.450;20.706;2024-03-08T23:18:47;255.52;;;122.57;;
38653;SDS011;24413;52.450;20.706;2024-03-08T23:21:14;234.43;;;112.50;;
38653;SDS011;24413;52.450;20.706;2024-03-08T23:23:40;238.63;;;106.10;;
38653;SDS011;24413;52.450;20.706;2024-03-08T23:26:06;217.40;;;98.60;;
38653;SDS011;24413;52.450;20.706;2024-03-08T23:28:32;196.43;;;92.40;;
38653;SDS011;24413;52.450;20.706;2024-03-08T23:30:57;213.90;;;95.88;;
38653;SDS011;24413;52.450;20.706;2024-03-08T23:33:23;197.10;;;88.93;;
38653;SDS011;24413;52.450;20.706;2024-03-08T23:35:49;200.63;;;86.95;;
38653;SDS011;24413;52.450;20.706;2024-03-08T23:38:15;192.80;;;83.70;;
38653;SDS011;24413;52.450;20.706;2024-03-08T23:40:43;194.35;;;81.03;;
38653;SDS011;24413;52.450;20.706;2024-03-08T23:43:08;166.55;;;75.75;;
38653;SDS011;24413;52.450;20.706;2024-03-08T23:45:34;169.40;;;74.40;;
38653;SDS011;24413;52.450;20.706;2024-03-08T23:47:59;167.73;;;74.85;;
38653;SDS011;24413;52.450;20.706;2024-03-08T23:50:26;149.25;;;71.45;;
38653;SDS011;24413;52.450;20.706;2024-03-08T23:52:52;165.57;;;72.55;;
38653;SDS011;24413;52.450;20.706;2024-03-08T23:55:20;142.40;;;65.45;;
38653;SDS011;24413;52.450;20.706;2024-03-08T23:57:51;143.07;;;65.05;;
